Aeroporto :
LOGIN :

Iscrizione | Disclaimer

   EN    FR    IT 

 










Sommario :    VFR   VFR Marginale   IFR   IFR Intensivo   IFR Molto Intensivo
Visibilità : 
Base nubi : 
>= 8 km
>= 3000ft
5 / 8 km
1000 / 3000 ft
1500m / 5 km
500 / 1000 ft
800 / 1500m
200 / 500 ft
< 800m
< 200 ft
Simboli :   Temporali  Nebbia  Neve Forte  Precipitazioni Forti  Vento > 20 kt
SIGMETs :   Varie  Temporali  Ghiacco  Turbolenza  Onda orograficha  Ceneri Vulcaniche







- Altitudine del aeroporto : 755 ft
- Codice IATA : DRS


EDDC - Dresden Klotzsche

ULTIMO METAR :
  • 241320Z 35005KT 9999 OVC032 09/03 Q1022 NOSIG

METARs OBSOLETI :
  • 241250Z 36005KT 320V030 9999 OVC033 09/03 Q1023 NOSIG
  • 241220Z 31003KT 280V340 9999 BKN032 BKN037 09/03 Q1023 NOSIG
  • 241150Z 10003KT 020V160 9999 BKN032 BKN039 10/02 Q1023 NOSIG
  • 241120Z 06003KT 350V110 9999 BKN033 BKN040 10/02 Q1024 NOSIG
  • 241050Z 08005KT 030V140 9999 FEW031 OVC040 09/02 Q1024 NOSIG

TAF TAF EDDC
Valido dal 24 a 12 ore il 25 a 12 ore UTC


241100Z 2412/2512 34004KT 9999 SCT020 BKN035
BECMG 2419/2422 26007KT
BECMG 2504/2507 27013KT
TEMPO 2506/2512 27015G30KT 3500 SHRAGS BKN012CB
Nessun NOTAM noto per questo aeroporto.



MetMap, La meteo Aeronautica in un colpo d'occhio ! - Copyright ORBIFLY Dicembre 2007 - Disclaimer

ORBIFLY MET'MAP TEAM :

Programmazione e sviluppo : Alexandra Zaïnal
Concezione e sviluppo : Baudouin d'Aumeries
Co-Programmazione e sviluppo : Marc-Olivier Méhu
Supporto tecnico e logistico : Manuel Goepfert
Aiuto per la traduzione : Arnaldo La Scala

Contatto : metmap@orbifly.com




FONTI E CREDITI :

   NOAA